Time;durP1;ratioP1;P1;durP2;ratioP2;P2;SDS_P1;SDS_P2;PMS_P1;PMS_P2;Temp;Humidity;BMP_temperature;BMP_pressure;BME280_temperature;BME280_humidity;BME280_pressure;Samples;Min_cycle;Max_cycle;Signal;HPM_P1;HPM_P2
2024/01/25 00:00:37;;;;;;;1.00;0.90;;;;;;;;;;5015436;28;20121;-65
2024/01/25 00:03:02;;;;;;;2.92;1.15;;;;;;;;;;5015362;28;20041;-65
2024/01/25 00:05:28;;;;;;;3.05;1.08;;;;;;;;;;5015391;28;20033;-65
2024/01/25 00:07:53;;;;;;;2.33;1.10;;;;;;;;;;5014976;28;20108;-65
2024/01/25 00:10:19;;;;;;;3.20;1.65;;;;;;;;;;5015516;28;20477;-65
2024/01/25 00:12:44;;;;;;;2.88;0.95;;;;;;;;;;5015254;28;20014;-65
2024/01/25 00:15:10;;;;;;;1.33;0.70;;;;;;;;;;4997410;28;20091;-65
2024/01/25 00:17:35;;;;;;;1.45;0.88;;;;;;;;;;5015442;28;20030;-65
2024/01/25 00:20:02;;;;;;;0.68;0.52;;;;;;;;;;5014833;28;20044;-65
2024/01/25 00:22:28;;;;;;;3.10;1.13;;;;;;;;;;5014864;28;20029;-65
2024/01/25 00:24:53;;;;;;;1.15;0.82;;;;;;;;;;5014718;28;20381;-65
2024/01/25 00:27:18;;;;;;;0.57;0.52;;;;;;;;;;5015207;28;20373;-65
2024/01/25 00:29:44;;;;;;;5.03;1.00;;;;;;;;;;5014976;28;20041;-65
2024/01/25 00:32:09;;;;;;;1.30;0.60;;;;;;;;;;5014689;28;20041;-65
2024/01/25 00:34:35;;;;;;;2.25;0.65;;;;;;;;;;5015161;28;20045;-65
2024/01/25 00:37:00;;;;;;;0.75;0.50;;;;;;;;;;5015112;28;20409;-65
2024/01/25 00:39:26;;;;;;;3.45;0.80;;;;;;;;;;5014660;28;20370;-66
2024/01/25 00:41:57;;;;;;;2.30;1.23;;;;;;;;;;5014558;28;20018;-66
2024/01/25 00:44:23;;;;;;;1.02;0.68;;;;;;;;;;5029796;28;20482;-66
2024/01/25 00:46:48;;;;;;;4.63;1.25;;;;;;;;;;5014385;28;20037;-66
2024/01/25 00:49:14;;;;;;;2.40;1.00;;;;;;;;;;5014487;28;20029;-66
2024/01/25 00:51:43;;;;;;;4.30;0.95;;;;;;;;;;5014374;28;20025;-65
2024/01/25 00:54:09;;;;;;;3.03;1.05;;;;;;;;;;5028774;28;20076;-65
2024/01/25 00:56:35;;;;;;;1.98;0.75;;;;;;;;;;5014722;28;20492;-66
2024/01/25 00:59:00;;;;;;;0.85;0.60;;;;;;;;;;5029938;28;20385;-67
2024/01/25 01:01:26;;;;;;;1.67;0.70;;;;;;;;;;5014178;28;20168;-67
2024/01/25 01:03:52;;;;;;;1.30;0.75;;;;;;;;;;5014105;28;20481;-67
2024/01/25 01:06:19;;;;;;;0.43;0.28;;;;;;;;;;5014053;28;20603;-67
2024/01/25 01:08:44;;;;;;;1.27;0.70;;;;;;;;;;5014114;28;20401;-67
2024/01/25 01:11:10;;;;;;;0.70;0.70;;;;;;;;;;5014070;28;20029;-66
2024/01/25 01:13:35;;;;;;;1.73;0.68;;;;;;;;;;5014283;28;20038;-66
2024/01/25 01:16:01;;;;;;;1.00;0.25;;;;;;;;;;5014266;28;20037;-66
2024/01/25 01:18:26;;;;;;;1.27;0.82;;;;;;;;;;5013908;28;20109;-66
2024/01/25 01:20:51;;;;;;;2.08;0.90;;;;;;;;;;5014472;28;20561;-67
2024/01/25 01:23:17;;;;;;;1.15;0.80;;;;;;;;;;5013842;28;20477;-65
2024/01/25 01:25:42;;;;;;;0.43;0.40;;;;;;;;;;5014422;28;20421;-64
2024/01/25 01:28:08;;;;;;;1.02;0.50;;;;;;;;;;5014276;28;20030;-65
2024/01/25 01:30:33;;;;;;;2.75;1.30;;;;;;;;;;5029052;28;20096;-64
2024/01/25 01:32:58;;;;;;;0.80;0.40;;;;;;;;;;5014059;28;20030;-66
2024/01/25 01:35:24;;;;;;;1.75;0.93;;;;;;;;;;5014315;28;20033;-66
2024/01/25 01:37:49;;;;;;;1.85;1.02;;;;;;;;;;5014300;28;20018;-67
2024/01/25 01:40:15;;;;;;;3.78;0.93;;;;;;;;;;5013899;28;20030;-66
2024/01/25 01:42:40;;;;;;;1.58;0.85;;;;;;;;;;5014001;28;20026;-67
2024/01/25 01:45:06;;;;;;;4.22;1.00;;;;;;;;;;5013831;28;20080;-66
2024/01/25 01:47:31;;;;;;;4.57;1.63;;;;;;;;;;5013595;28;20034;-66
2024/01/25 01:49:57;;;;;;;2.33;1.15;;;;;;;;;;5014427;28;20105;-66
2024/01/25 01:52:22;;;;;;;5.70;1.02;;;;;;;;;;5013789;28;20461;-66
2024/01/25 01:54:48;;;;;;;1.48;0.88;;;;;;;;;;5028200;28;20070;-66
2024/01/25 01:57:13;;;;;;;3.20;0.77;;;;;;;;;;5014013;28;20462;-66
2024/01/25 01:59:39;;;;;;;0.47;0.43;;;;;;;;;;5013797;28;20113;-65
2024/01/25 02:02:05;;;;;;;4.57;1.35;;;;;;;;;;5013606;28;20058;-65
2024/01/25 02:04:31;;;;;;;3.13;1.00;;;;;;;;;;5014294;28;20038;-65
2024/01/25 02:06:56;;;;;;;3.97;1.30;;;;;;;;;;5017601;28;20351;-65
2024/01/25 02:09:22;;;;;;;2.92;1.13;;;;;;;;;;5017242;28;20065;-65
2024/01/25 02:11:47;;;;;;;1.42;0.63;;;;;;;;;;5033056;28;20442;-67
2024/01/25 02:14:13;;;;;;;0.75;0.52;;;;;;;;;;4999603;28;20084;-65
2024/01/25 02:16:38;;;;;;;4.13;1.30;;;;;;;;;;5017103;28;20030;-66
2024/01/25 02:19:04;;;;;;;1.48;0.65;;;;;;;;;;5017673;28;20088;-66
2024/01/25 02:21:29;;;;;;;1.00;0.65;;;;;;;;;;5017268;28;20070;-66
2024/01/25 02:23:55;;;;;;;5.88;1.17;;;;;;;;;;5017421;28;20029;-67
2024/01/25 02:26:20;;;;;;;2.25;0.75;;;;;;;;;;5032266;28;20049;-67
2024/01/25 02:28:46;;;;;;;3.80;1.60;;;;;;;;;;5017010;28;20030;-66
2024/01/25 02:31:11;;;;;;;1.40;0.60;;;;;;;;;;5016911;28;20072;-66
2024/01/25 02:33:37;;;;;;;3.53;1.08;;;;;;;;;;5017516;28;20453;-66
2024/01/25 02:36:02;;;;;;;2.58;1.00;;;;;;;;;;5016853;28;20037;-66
2024/01/25 02:38:27;;;;;;;0.93;0.70;;;;;;;;;;5016885;28;20037;-65
2024/01/25 02:40:53;;;;;;;1.65;0.68;;;;;;;;;;5016672;28;20393;-66
2024/01/25 02:43:19;;;;;;;6.10;1.77;;;;;;;;;;5016677;28;20034;-66
2024/01/25 02:45:44;;;;;;;1.67;0.75;;;;;;;;;;5016467;28;20508;-66
2024/01/25 02:48:10;;;;;;;1.42;0.80;;;;;;;;;;5016455;28;20107;-66
2024/01/25 02:50:35;;;;;;;2.90;1.05;;;;;;;;;;5016982;28;20042;-66
2024/01/25 02:53:01;;;;;;;0.93;0.73;;;;;;;;;;5016626;28;20033;-66
2024/01/25 02:55:27;;;;;;;2.00;0.93;;;;;;;;;;5016678;28;20044;-66
2024/01/25 02:57:53;;;;;;;3.60;1.17;;;;;;;;;;5016613;28;20045;-66
2024/01/25 03:00:18;;;;;;;1.80;0.60;;;;;;;;;;5016834;28;20030;-66
2024/01/25 03:02:44;;;;;;;1.45;0.52;;;;;;;;;;5016368;28;20385;-66
2024/01/25 03:05:09;;;;;;;5.00;1.15;;;;;;;;;;5016626;28;20061;-66
2024/01/25 03:07:35;;;;;;;2.55;1.00;;;;;;;;;;5016063;28;20186;-66
2024/01/25 03:10:00;;;;;;;1.92;1.00;;;;;;;;;;5016385;28;20037;-66
2024/01/25 03:12:26;;;;;;;2.67;1.08;;;;;;;;;;5016312;28;20033;-65
2024/01/25 03:14:51;;;;;;;2.60;0.95;;;;;;;;;;5016533;28;20064;-65
2024/01/25 03:17:17;;;;;;;2.53;1.10;;;;;;;;;;5014905;28;20398;-65
2024/01/25 03:19:42;;;;;;;1.67;1.08;;;;;;;;;;4998386;28;20397;-65
2024/01/25 03:22:10;;;;;;;1.77;0.98;;;;;;;;;;5016326;28;20461;-65
2024/01/25 03:24:39;;;;;;;3.45;1.08;;;;;;;;;;5016430;28;20509;-65
2024/01/25 03:27:04;;;;;;;1.98;1.00;;;;;;;;;;5016278;28;20021;-66
2024/01/25 03:29:31;;;;;;;2.28;0.80;;;;;;;;;;5031367;28;20024;-65
2024/01/25 03:31:56;;;;;;;0.40;0.40;;;;;;;;;;5015907;28;20385;-65
2024/01/25 03:34:22;;;;;;;1.80;0.77;;;;;;;;;;5030981;28;20025;-65
2024/01/25 03:36:47;;;;;;;4.25;1.30;;;;;;;;;;5016198;28;20038;-65
2024/01/25 03:39:12;;;;;;;3.72;1.02;;;;;;;;;;5015740;28;20029;-65
2024/01/25 03:41:38;;;;;;;4.30;1.13;;;;;;;;;;5015916;28;20029;-64
2024/01/25 03:44:03;;;;;;;2.92;0.85;;;;;;;;;;5015609;28;20045;-65
2024/01/25 03:46:29;;;;;;;3.47;1.27;;;;;;;;;;5015576;28;20034;-66
2024/01/25 03:48:54;;;;;;;2.15;0.85;;;;;;;;;;5015318;28;20052;-66
2024/01/25 03:51:20;;;;;;;3.45;1.45;;;;;;;;;;5015870;28;20412;-64
2024/01/25 03:53:45;;;;;;;4.22;1.42;;;;;;;;;;5030686;28;20053;-65
2024/01/25 03:56:12;;;;;;;3.28;1.27;;;;;;;;;;4997763;28;20021;-63
2024/01/25 03:58:37;;;;;;;4.55;1.35;;;;;;;;;;5015363;28;20029;-64
2024/01/25 04:01:03;;;;;;;3.55;1.30;;;;;;;;;;5015399;28;20172;-63
2024/01/25 04:03:28;;;;;;;2.15;1.15;;;;;;;;;;5015426;28;20040;-63
2024/01/25 04:05:54;;;;;;;3.78;1.60;;;;;;;;;;5015220;28;20096;-63
2024/01/25 04:08:19;;;;;;;3.20;1.20;;;;;;;;;;5014975;28;20436;-63
2024/01/25 04:10:44;;;;;;;3.65;1.23;;;;;;;;;;5015045;28;20056;-65
2024/01/25 04:13:15;;;;;;;3.65;1.20;;;;;;;;;;5015696;28;20057;-64
2024/01/25 04:15:40;;;;;;;;;;;;;;;;;;5031386;28;20484;-64
2024/01/25 04:18:06;;;;;;;5.07;1.30;;;;;;;;;;5030276;28;19905;-64
2024/01/25 04:20:34;;;;;;;3.83;1.23;;;;;;;;;;4997635;28;20288;-63
2024/01/25 04:22:59;;;;;;;3.60;1.05;;;;;;;;;;5015191;28;20068;-64
2024/01/25 04:25:28;;;;;;;1.17;0.65;;;;;;;;;;5029369;23;20010;-55
2024/01/25 04:27:54;;;;;;;2.45;1.00;;;;;;;;;;5027982;23;20144;-63
2024/01/25 04:30:19;;;;;;;2.00;0.60;;;;;;;;;;5039194;23;20428;-64
2024/01/25 04:32:55;;;;;;;2.58;1.30;;;;;;;;;;5027245;23;20115;-63
2024/01/25 04:35:21;;;;;;;3.65;1.10;;;;;;;;;;5019340;23;20140;-63
2024/01/25 04:37:46;;;;;;;3.88;1.50;;;;;;;;;;5014842;28;20113;-63
2024/01/25 04:40:11;;;;;;;4.32;1.30;;;;;;;;;;5014492;28;20478;-63
2024/01/25 04:42:37;;;;;;;4.13;1.00;;;;;;;;;;5014493;28;20542;-64
2024/01/25 04:45:02;;;;;;;2.55;0.93;;;;;;;;;;5015000;28;20121;-65
2024/01/25 04:47:27;;;;;;;4.25;1.30;;;;;;;;;;5014581;28;20101;-64
2024/01/25 04:49:53;;;;;;;4.38;1.10;;;;;;;;;;5014364;28;20501;-65
2024/01/25 04:52:18;;;;;;;4.55;1.13;;;;;;;;;;5013286;28;20030;-65
2024/01/25 04:54:44;;;;;;;3.10;0.90;;;;;;;;;;5014095;28;20069;-64
2024/01/25 04:57:09;;;;;;;1.58;0.65;;;;;;;;;;5013654;28;20022;-65
2024/01/25 04:59:35;;;;;;;2.25;0.40;;;;;;;;;;5014592;28;20426;-65
2024/01/25 05:02:00;;;;;;;2.10;1.10;;;;;;;;;;5013565;28;20544;-65
2024/01/25 05:04:27;;;;;;;4.50;1.17;;;;;;;;;;5012485;28;20105;-65
2024/01/25 05:06:53;;;;;;;5.38;1.40;;;;;;;;;;5027611;28;20026;-65
2024/01/25 05:09:18;;;;;;;2.83;1.08;;;;;;;;;;5012364;28;20578;-65
2024/01/25 05:11:44;;;;;;;5.35;1.20;;;;;;;;;;4995397;28;20084;-65
2024/01/25 05:14:09;;;;;;;2.75;1.20;;;;;;;;;;5013100;28;20092;-65
2024/01/25 05:16:35;;;;;;;3.08;1.15;;;;;;;;;;5013356;28;20018;-68
2024/01/25 05:19:01;;;;;;;3.30;1.33;;;;;;;;;;5014507;28;20072;-65
2024/01/25 05:21:26;;;;;;;4.25;1.30;;;;;;;;;;5013901;28;20064;-64
2024/01/25 05:23:52;;;;;;;2.03;1.13;;;;;;;;;;4996266;28;20486;-65
2024/01/25 05:26:18;;;;;;;4.60;1.35;;;;;;;;;;5014289;28;20061;-65
2024/01/25 05:28:44;;;;;;;3.35;1.05;;;;;;;;;;5013935;28;20034;-64
2024/01/25 05:31:12;;;;;;;5.25;1.52;;;;;;;;;;5013901;28;20480;-64
2024/01/25 05:33:41;;;;;;;3.10;1.23;;;;;;;;;;5014006;28;20113;-64
2024/01/25 05:36:06;;;;;;;4.63;1.55;;;;;;;;;;5013650;28;20045;-64
2024/01/25 05:38:32;;;;;;;3.97;1.40;;;;;;;;;;5014330;28;20030;-64
2024/01/25 05:40:57;;;;;;;3.08;1.05;;;;;;;;;;5017646;28;20385;-64
2024/01/25 05:43:23;;;;;;;2.85;0.93;;;;;;;;;;5017780;28;20034;-64
2024/01/25 05:45:49;;;;;;;2.50;1.05;;;;;;;;;;5000184;28;20444;-64
2024/01/25 05:48:14;;;;;;;2.08;0.65;;;;;;;;;;5017952;28;20034;-64
2024/01/25 05:50:40;;;;;;;2.17;1.00;;;;;;;;;;5017976;28;20034;-64
2024/01/25 05:53:05;;;;;;;4.50;1.45;;;;;;;;;;5018277;28;20097;-64
2024/01/25 05:55:30;;;;;;;3.97;1.00;;;;;;;;;;5018166;28;20034;-64
2024/01/25 05:57:56;;;;;;;3.92;1.25;;;;;;;;;;5018041;28;20500;-64
2024/01/25 06:00:21;;;;;;;3.55;1.33;;;;;;;;;;5018037;28;20453;-64
2024/01/25 06:02:47;;;;;;;0.68;0.50;;;;;;;;;;5017672;28;20101;-64
2024/01/25 06:05:12;;;;;;;1.33;0.90;;;;;;;;;;5017679;28;20036;-64
2024/01/25 06:07:38;;;;;;;2.67;1.15;;;;;;;;;;5017626;28;20080;-64
2024/01/25 06:10:03;;;;;;;2.88;1.15;;;;;;;;;;5017677;28;20051;-64
2024/01/25 06:12:29;;;;;;;4.40;1.50;;;;;;;;;;5017684;28;20110;-64
2024/01/25 06:14:54;;;;;;;2.30;0.98;;;;;;;;;;5017894;28;20033;-65
2024/01/25 06:17:19;;;;;;;3.10;1.13;;;;;;;;;;5016725;28;20069;-64
2024/01/25 06:19:45;;;;;;;1.25;0.55;;;;;;;;;;5016309;28;20488;-65
2024/01/25 06:22:12;;;;;;;2.53;1.10;;;;;;;;;;5016526;28;20079;-64
2024/01/25 06:24:38;;;;;;;2.90;0.90;;;;;;;;;;5016567;28;20025;-64
2024/01/25 06:27:03;;;;;;;2.80;1.40;;;;;;;;;;5016449;28;20436;-64
2024/01/25 06:29:28;;;;;;;3.33;1.25;;;;;;;;;;5015639;28;20045;-64
2024/01/25 06:31:54;;;;;;;4.10;1.25;;;;;;;;;;5015486;28;20029;-64
2024/01/25 06:34:19;;;;;;;2.42;1.20;;;;;;;;;;5015238;28;20048;-64
2024/01/25 06:36:45;;;;;;;2.20;0.95;;;;;;;;;;5016586;28;20049;-65
2024/01/25 06:39:10;;;;;;;1.55;0.80;;;;;;;;;;5017308;28;20124;-64
2024/01/25 06:41:35;;;;;;;3.40;1.38;;;;;;;;;;5016973;28;20033;-65
2024/01/25 06:44:01;;;;;;;5.32;1.38;;;;;;;;;;5016671;28;20028;-64
2024/01/25 06:46:26;;;;;;;3.85;1.60;;;;;;;;;;5016562;28;20032;-64
2024/01/25 06:48:52;;;;;;;2.95;1.33;;;;;;;;;;5016535;28;20038;-64
2024/01/25 06:51:17;;;;;;;2.92;1.50;;;;;;;;;;5016432;28;20363;-64
2024/01/25 06:53:42;;;;;;;4.05;1.73;;;;;;;;;;5016778;28;20465;-64
2024/01/25 06:56:08;;;;;;;3.55;1.48;;;;;;;;;;5016672;28;20030;-64
2024/01/25 06:58:33;;;;;;;3.45;1.40;;;;;;;;;;5016697;28;20129;-64
2024/01/25 07:00:59;;;;;;;3.90;1.75;;;;;;;;;;5016921;28;20034;-64
2024/01/25 07:03:24;;;;;;;4.03;1.73;;;;;;;;;;5031519;28;20033;-64
2024/01/25 07:05:49;;;;;;;5.40;2.00;;;;;;;;;;5016301;28;20397;-64
2024/01/25 07:08:15;;;;;;;3.28;1.55;;;;;;;;;;4998559;28;20037;-64
2024/01/25 07:10:41;;;;;;;4.03;1.50;;;;;;;;;;5016209;28;20363;-64
2024/01/25 07:13:06;;;;;;;4.30;1.30;;;;;;;;;;5016132;28;20041;-64
2024/01/25 07:15:32;;;;;;;4.55;1.48;;;;;;;;;;5016425;28;20034;-64
2024/01/25 07:17:57;;;;;;;5.13;1.90;;;;;;;;;;5016072;28;20512;-64
2024/01/25 07:20:23;;;;;;;3.35;1.60;;;;;;;;;;5016586;28;20042;-64
2024/01/25 07:22:48;;;;;;;3.35;1.33;;;;;;;;;;5016539;28;20040;-64
2024/01/25 07:25:14;;;;;;;6.20;1.90;;;;;;;;;;4998735;28;20121;-64
2024/01/25 07:27:39;;;;;;;1.40;1.30;;;;;;;;;;5016105;28;20054;-65
2024/01/25 07:30:05;;;;;;;3.05;1.08;;;;;;;;;;5016119;28;20457;-64
2024/01/25 07:32:32;;;;;;;2.15;0.95;;;;;;;;;;5015808;28;20041;-64
2024/01/25 07:34:57;;;;;;;3.92;1.42;;;;;;;;;;4998040;28;20046;-64
2024/01/25 07:37:23;;;;;;;4.85;1.58;;;;;;;;;;5014453;28;20439;-64
2024/01/25 07:39:48;;;;;;;3.75;1.23;;;;;;;;;;5015910;28;20034;-62
2024/01/25 07:42:13;;;;;;;4.70;1.40;;;;;;;;;;5015606;28;20033;-62
2024/01/25 07:44:40;;;;;;;4.30;1.50;;;;;;;;;;5016094;28;20030;-62
2024/01/25 07:47:05;;;;;;;4.80;1.27;;;;;;;;;;4997980;28;20476;-62
2024/01/25 07:49:30;;;;;;;5.18;1.27;;;;;;;;;;5015734;28;20037;-62
2024/01/25 07:51:59;;;;;;;3.10;1.40;;;;;;;;;;5015667;28;20037;-62
2024/01/25 07:54:24;;;;;;;3.05;1.20;;;;;;;;;;5015369;28;20030;-62
2024/01/25 07:56:50;;;;;;;4.38;1.52;;;;;;;;;;4997739;28;20089;-63
2024/01/25 07:59:15;;;;;;;2.13;1.10;;;;;;;;;;5015544;28;20029;-62
2024/01/25 08:01:40;;;;;;;1.90;0.98;;;;;;;;;;5015634;28;20026;-62
2024/01/25 08:04:06;;;;;;;1.88;0.95;;;;;;;;;;5029942;28;20488;-62
2024/01/25 08:06:31;;;;;;;2.10;1.35;;;;;;;;;;5015156;28;20041;-62
2024/01/25 08:08:56;;;;;;;1.95;1.05;;;;;;;;;;5015598;28;20034;-62
2024/01/25 08:11:22;;;;;;;1.60;0.82;;;;;;;;;;5015106;28;20432;-62
2024/01/25 08:13:49;;;;;;;1.98;1.05;;;;;;;;;;5015578;28;20026;-62
2024/01/25 08:16:18;;;;;;;2.10;0.95;;;;;;;;;;5015237;28;20156;-62
2024/01/25 08:18:44;;;;;;;3.70;1.23;;;;;;;;;;5015227;28;20044;-63
2024/01/25 08:21:10;;;;;;;1.73;1.40;;;;;;;;;;5014888;28;20393;-63
2024/01/25 08:23:36;;;;;;;2.75;1.35;;;;;;;;;;5014850;28;20037;-62
2024/01/25 08:26:01;;;;;;;1.63;1.27;;;;;;;;;;5015092;28;20044;-62
2024/01/25 08:28:27;;;;;;;3.58;1.13;;;;;;;;;;5014682;28;20141;-62
2024/01/25 08:30:53;;;;;;;2.53;1.23;;;;;;;;;;5029891;28;20025;-62
2024/01/25 08:33:18;;;;;;;3.70;1.63;;;;;;;;;;5014703;28;20041;-63
2024/01/25 08:35:43;;;;;;;3.80;1.17;;;;;;;;;;5013707;28;20116;-62
2024/01/25 08:38:09;;;;;;;2.83;1.20;;;;;;;;;;5014888;28;20033;-64
2024/01/25 08:40:34;;;;;;;3.38;1.30;;;;;;;;;;5014872;28;20040;-64
2024/01/25 08:42:59;;;;;;;1.05;0.68;;;;;;;;;;4997305;28;20038;-64
2024/01/25 08:45:25;;;;;;;2.78;1.35;;;;;;;;;;5014449;28;20032;-64
2024/01/25 08:47:52;;;;;;;2.58;1.05;;;;;;;;;;5014652;28;20030;-65
2024/01/25 08:50:17;;;;;;;3.85;1.48;;;;;;;;;;5014668;28;20438;-64
2024/01/25 08:52:43;;;;;;;2.65;1.40;;;;;;;;;;5029539;28;20116;-64
2024/01/25 08:55:09;;;;;;;3.70;1.80;;;;;;;;;;5014294;28;20018;-64
2024/01/25 08:57:35;;;;;;;1.05;0.93;;;;;;;;;;5014833;28;20466;-64
2024/01/25 09:00:00;;;;;;;2.78;1.33;;;;;;;;;;5014494;28;20029;-65
2024/01/25 09:02:27;;;;;;;4.47;1.80;;;;;;;;;;5014466;28;20083;-64
2024/01/25 09:04:53;;;;;;;4.63;2.10;;;;;;;;;;5014729;28;20034;-64
2024/01/25 09:07:22;;;;;;;5.30;1.48;;;;;;;;;;5029243;28;20091;-64
2024/01/25 09:09:48;;;;;;;6.45;1.73;;;;;;;;;;5014386;28;20026;-64
2024/01/25 09:12:14;;;;;;;3.60;1.85;;;;;;;;;;5014097;28;20529;-64
2024/01/25 09:14:39;;;;;;;3.10;1.25;;;;;;;;;;4995748;28;20022;-64
2024/01/25 09:17:05;;;;;;;3.53;1.23;;;;;;;;;;5014298;28;20385;-64
2024/01/25 09:19:30;;;;;;;4.38;1.73;;;;;;;;;;5029169;28;20037;-64
2024/01/25 09:21:58;;;;;;;5.50;1.63;;;;;;;;;;5013957;28;20026;-64
2024/01/25 09:24:23;;;;;;;4.88;1.75;;;;;;;;;;5014229;28;20030;-64
2024/01/25 09:26:48;;;;;;;3.70;1.55;;;;;;;;;;5014458;28;20026;-64
2024/01/25 09:29:14;;;;;;;2.33;1.30;;;;;;;;;;4996226;28;20481;-64
2024/01/25 09:31:39;;;;;;;2.67;1.15;;;;;;;;;;5013842;28;20561;-64
2024/01/25 09:34:04;;;;;;;5.03;1.40;;;;;;;;;;5013839;28;20540;-64
2024/01/25 09:36:30;;;;;;;3.20;1.02;;;;;;;;;;4996137;28;20113;-64
2024/01/25 09:38:55;;;;;;;5.10;1.50;;;;;;;;;;5014055;28;20465;-64
2024/01/25 09:41:21;;;;;;;3.28;1.00;;;;;;;;;;5014057;28;20026;-64
2024/01/25 09:43:47;;;;;;;2.10;1.35;;;;;;;;;;5013746;28;20034;-64
2024/01/25 09:46:14;;;;;;;4.28;1.55;;;;;;;;;;4996231;28;20458;-64
2024/01/25 09:48:40;;;;;;;3.38;1.50;;;;;;;;;;5013618;28;20125;-64
2024/01/25 09:51:06;;;;;;;2.25;1.25;;;;;;;;;;5014216;28;20381;-64
2024/01/25 09:53:33;;;;;;;4.30;1.73;;;;;;;;;;5013670;28;20026;-64
2024/01/25 09:56:09;;;;;;;4.90;1.58;;;;;;;;;;5013611;28;20026;-64
2024/01/25 09:58:38;;;;;;;1.23;0.90;;;;;;;;;;5013865;28;20042;-64
2024/01/25 10:01:03;;;;;;;3.15;1.48;;;;;;;;;;5013581;28;20084;-64
2024/01/25 10:03:30;;;;;;;3.30;1.27;;;;;;;;;;5014081;28;20378;-64
2024/01/25 10:05:56;;;;;;;4.57;1.70;;;;;;;;;;5014084;28;20105;-64
2024/01/25 10:08:23;;;;;;;4.85;1.60;;;;;;;;;;5013434;28;20112;-65
2024/01/25 10:10:49;;;;;;;3.83;1.67;;;;;;;;;;5028653;28;20362;-64
2024/01/25 10:13:14;;;;;;;3.40;1.67;;;;;;;;;;4995825;28;20052;-64
2024/01/25 10:15:41;;;;;;;4.40;1.90;;;;;;;;;;5014018;28;20037;-65
2024/01/25 10:18:12;;;;;;;6.13;1.85;;;;;;;;;;5013408;28;20470;-64
2024/01/25 10:20:42;;;;;;;6.38;1.80;;;;;;;;;;5013655;28;20087;-65
2024/01/25 10:23:07;;;;;;;3.20;1.38;;;;;;;;;;4995914;28;20029;-65
2024/01/25 10:25:34;;;;;;;1.60;0.85;;;;;;;;;;5014159;28;20036;-64
2024/01/25 10:28:00;;;;;;;6.85;1.92;;;;;;;;;;5016960;28;20128;-64
2024/01/25 10:30:27;;;;;;;5.40;1.02;;;;;;;;;;5016992;28;20067;-64
2024/01/25 10:32:53;;;;;;;1.13;0.80;;;;;;;;;;5017224;28;20025;-64
2024/01/25 10:35:20;;;;;;;3.47;1.63;;;;;;;;;;5017206;28;20044;-64
2024/01/25 10:37:45;;;;;;;9.88;2.58;;;;;;;;;;5016815;28;20030;-65
2024/01/25 10:40:11;;;;;;;5.47;1.83;;;;;;;;;;5016804;28;20382;-64
2024/01/25 10:42:37;;;;;;;4.85;1.95;;;;;;;;;;5016721;28;20421;-64
2024/01/25 10:45:02;;;;;;;8.45;2.15;;;;;;;;;;5016978;28;20038;-64
2024/01/25 10:47:30;;;;;;;3.67;1.65;;;;;;;;;;5031751;28;20030;-64
2024/01/25 10:49:56;;;;;;;2.47;1.42;;;;;;;;;;5016892;28;20037;-64
2024/01/25 10:52:22;;;;;;;4.35;1.73;;;;;;;;;;5016557;28;20417;-64
2024/01/25 10:54:47;;;;;;;3.83;1.67;;;;;;;;;;5016766;28;20034;-64
2024/01/25 10:57:13;;;;;;;2.83;1.30;;;;;;;;;;5016503;28;20108;-64
2024/01/25 10:59:38;;;;;;;5.63;2.10;;;;;;;;;;5016465;28;20029;-64
2024/01/25 11:13:56;;;;;;;7.28;2.55;;;;;;;;;;5090974;27;20212;-65
2024/01/25 11:16:29;;;;;;;2.17;1.40;;;;;;;;;;5090943;28;20021;-64
2024/01/25 11:18:55;;;;;;;4.05;2.08;;;;;;;;;;5089702;28;20463;-65
2024/01/25 11:21:27;;;;;;;4.50;1.80;;;;;;;;;;5089580;28;20073;-65
2024/01/25 11:23:59;;;;;;;3.13;1.55;;;;;;;;;;5090801;28;20383;-65
2024/01/25 11:26:25;;;;;;;2.92;1.60;;;;;;;;;;5090756;28;20024;-64
2024/01/25 11:28:50;;;;;;;4.63;2.17;;;;;;;;;;5090675;28;20093;-65
2024/01/25 11:31:16;;;;;;;5.03;1.90;;;;;;;;;;5090891;28;20510;-65
2024/01/25 11:33:42;;;;;;;5.43;1.80;;;;;;;;;;5090816;28;20017;-65
2024/01/25 11:36:07;;;;;;;6.30;2.17;;;;;;;;;;5072445;28;20471;-64
2024/01/25 11:38:32;;;;;;;5.05;1.80;;;;;;;;;;5089606;28;20024;-64
2024/01/25 11:40:58;;;;;;;3.30;1.60;;;;;;;;;;5090514;28;20063;-64
2024/01/25 11:43:24;;;;;;;4.70;1.40;;;;;;;;;;5090435;28;20052;-65
2024/01/25 11:45:49;;;;;;;4.25;1.92;;;;;;;;;;5090365;28;20030;-65
2024/01/25 11:48:14;;;;;;;6.03;1.73;;;;;;;;;;5090351;28;20479;-65
2024/01/25 11:50:40;;;;;;;3.42;1.63;;;;;;;;;;5090266;28;20391;-65
2024/01/25 11:53:05;;;;;;;3.25;1.60;;;;;;;;;;5090193;28;20503;-65
2024/01/25 11:55:30;;;;;;;4.70;1.77;;;;;;;;;;5090235;28;20043;-65
2024/01/25 11:57:57;;;;;;;5.13;2.03;;;;;;;;;;5090138;28;20123;-64
2024/01/25 12:00:23;;;;;;;3.00;1.45;;;;;;;;;;5088829;28;20036;-65
2024/01/25 12:02:48;;;;;;;5.20;1.75;;;;;;;;;;5089951;28;20028;-65
2024/01/25 12:05:14;;;;;;;6.68;1.90;;;;;;;;;;5090090;28;20016;-65
2024/01/25 12:07:39;;;;;;;5.03;1.92;;;;;;;;;;5089914;28;20036;-65
2024/01/25 12:10:06;;;;;;;6.18;2.17;;;;;;;;;;5089899;28;20040;-65
2024/01/25 12:12:31;;;;;;;3.92;1.83;;;;;;;;;;5089772;28;20043;-65
2024/01/25 12:15:00;;;;;;;4.32;2.10;;;;;;;;;;5075873;28;20024;-65
2024/01/25 12:17:28;;;;;;;3.90;1.90;;;;;;;;;;5076510;28;20032;-65
2024/01/25 12:19:56;;;;;;;3.35;1.55;;;;;;;;;;5076215;28;20286;-65
2024/01/25 12:22:22;;;;;;;4.95;2.38;;;;;;;;;;5076091;28;20488;-65
2024/01/25 12:24:48;;;;;;;3.60;1.92;;;;;;;;;;5076089;28;20028;-65
2024/01/25 12:27:14;;;;;;;7.43;2.30;;;;;;;;;;5076078;28;20044;-65
2024/01/25 12:29:40;;;;;;;3.85;1.83;;;;;;;;;;5076041;28;20033;-65
2024/01/25 12:32:05;;;;;;;3.72;1.77;;;;;;;;;;5074754;28;20036;-65
2024/01/25 12:34:31;;;;;;;5.53;2.15;;;;;;;;;;5074715;28;20020;-65
2024/01/25 12:36:56;;;;;;;3.35;1.70;;;;;;;;;;5074669;28;20040;-65
2024/01/25 12:39:21;;;;;;;3.58;1.70;;;;;;;;;;5074707;28;20032;-65
2024/01/25 12:41:47;;;;;;;4.95;2.47;;;;;;;;;;5075726;28;20384;-65
2024/01/25 12:44:12;;;;;;;6.38;2.15;;;;;;;;;;5075989;28;20107;-65
2024/01/25 12:46:37;;;;;;;2.92;2.05;;;;;;;;;;5074636;28;20036;-65
2024/01/25 12:49:04;;;;;;;6.30;2.22;;;;;;;;;;5075657;28;20032;-65
2024/01/25 12:51:29;;;;;;;3.90;1.83;;;;;;;;;;5075621;28;20387;-65
2024/01/25 12:53:55;;;;;;;4.70;1.83;;;;;;;;;;5075794;28;20028;-65
2024/01/25 12:56:20;;;;;;;4.63;1.77;;;;;;;;;;5074434;28;20119;-65
2024/01/25 12:58:45;;;;;;;6.65;2.25;;;;;;;;;;5074358;28;20047;-65
2024/01/25 13:01:11;;;;;;;5.40;2.47;;;;;;;;;;5075423;28;20028;-65
2024/01/25 13:03:37;;;;;;;2.90;1.77;;;;;;;;;;5075426;28;20375;-65
2024/01/25 13:06:03;;;;;;;3.40;2.03;;;;;;;;;;5075388;28;20024;-65
2024/01/25 13:08:28;;;;;;;4.13;1.70;;;;;;;;;;5075395;28;20036;-65
2024/01/25 13:10:54;;;;;;;4.82;2.20;;;;;;;;;;5075351;28;20036;-65
2024/01/25 13:13:20;;;;;;;6.07;2.22;;;;;;;;;;5057192;28;20044;-65
2024/01/25 13:15:45;;;;;;;4.13;2.15;;;;;;;;;;5075230;28;20472;-65
2024/01/25 13:18:11;;;;;;;4.20;1.60;;;;;;;;;;5075165;28;20036;-62
2024/01/25 13:20:36;;;;;;;5.88;2.22;;;;;;;;;;5075079;28;20482;-62
2024/01/25 13:23:02;;;;;;;9.10;2.97;;;;;;;;;;5075189;28;20040;-62
2024/01/25 13:25:27;;;;;;;11.95;2.90;;;;;;;;;;5073912;28;20024;-62
2024/01/25 13:27:52;;;;;;;5.97;2.35;;;;;;;;;;5074546;28;20425;-65
2024/01/25 13:30:18;;;;;;;6.28;2.10;;;;;;;;;;5074818;28;20024;-65
2024/01/25 13:32:43;;;;;;;2.83;1.77;;;;;;;;;;5074453;28;20032;-62
2024/01/25 13:35:09;;;;;;;2.03;1.08;;;;;;;;;;5074940;28;20150;-62
2024/01/25 13:37:34;;;;;;;2.00;0.93;;;;;;;;;;5074433;28;20150;-63
2024/01/25 13:40:05;;;;;;;4.90;2.05;;;;;;;;;;5074375;28;20032;-63
2024/01/25 13:42:30;;;;;;;;;;;;;;;;;;5075003;28;20079;-63
2024/01/25 13:44:56;;;;;;;2.20;1.23;;;;;;;;;;5074527;28;19916;-62
2024/01/25 13:47:24;;;;;;;0.82;0.80;;;;;;;;;;5073465;28;20025;-62
2024/01/25 13:49:49;;;;;;;1.33;0.82;;;;;;;;;;5074323;28;20365;-63
2024/01/25 13:52:21;;;;;;;3.75;1.73;;;;;;;;;;5073328;28;20029;-63
2024/01/25 13:54:49;;;;;;;4.53;1.80;;;;;;;;;;5072914;28;20033;-63
2024/01/25 13:57:15;;;;;;;7.07;2.35;;;;;;;;;;5072426;28;20029;-62
2024/01/25 13:59:40;;;;;;;5.72;1.80;;;;;;;;;;5072449;28;20032;-62
2024/01/25 14:02:05;;;;;;;6.47;2.53;;;;;;;;;;5054919;28;20123;-62
2024/01/25 14:04:31;;;;;;;4.03;1.70;;;;;;;;;;5073332;28;20102;-63
2024/01/25 14:06:56;;;;;;;4.13;1.98;;;;;;;;;;5073137;28;20396;-63
2024/01/25 14:09:21;;;;;;;8.95;3.05;;;;;;;;;;5073624;28;20025;-63
2024/01/25 14:11:47;;;;;;;1.85;1.10;;;;;;;;;;5073966;28;20079;-62
2024/01/25 14:14:12;;;;;;;5.15;1.92;;;;;;;;;;5073984;28;20036;-63
2024/01/25 14:16:37;;;;;;;4.50;2.50;;;;;;;;;;5073895;28;20111;-63
2024/01/25 14:19:03;;;;;;;4.53;2.45;;;;;;;;;;5073904;28;20032;-63
2024/01/25 14:21:29;;;;;;;5.78;2.58;;;;;;;;;;5073793;28;20041;-63
2024/01/25 14:23:54;;;;;;;6.65;2.10;;;;;;;;;;5073875;28;20020;-64
2024/01/25 14:26:20;;;;;;;4.97;2.28;;;;;;;;;;5073832;28;20415;-63
2024/01/25 14:28:45;;;;;;;5.78;2.65;;;;;;;;;;5072528;28;20028;-63
2024/01/25 14:31:10;;;;;;;5.70;2.60;;;;;;;;;;5073780;28;20032;-64
2024/01/25 14:33:36;;;;;;;4.90;2.40;;;;;;;;;;5073711;28;20034;-63
2024/01/25 14:36:03;;;;;;;6.38;2.63;;;;;;;;;;5072037;28;20020;-62
2024/01/25 14:38:29;;;;;;;6.72;2.95;;;;;;;;;;5073934;28;20059;-63
2024/01/25 14:40:54;;;;;;;7.20;3.78;;;;;;;;;;5073753;28;20020;-63
2024/01/25 14:43:19;;;;;;;5.50;2.65;;;;;;;;;;5073711;28;20033;-63
2024/01/25 14:45:45;;;;;;;6.55;2.58;;;;;;;;;;5073815;28;20021;-63